sensor_id;sensor_type;location;lat;lon;timestamp;temperature;humidity
54796;DHT22;40693;43.884;20.340;2023-03-20T00:01:26;256.80;1945.60
54796;DHT22;40693;43.884;20.340;2023-03-20T00:03:52;256.80;1920.00
54796;DHT22;40693;43.884;20.340;2023-03-20T00:06:23;256.70;1945.60
54796;DHT22;40693;43.884;20.340;2023-03-20T00:08:52;256.70;1920.00
54796;DHT22;40693;43.884;20.340;2023-03-20T00:14:05;256.40;1945.60
54796;DHT22;40693;43.884;20.340;2023-03-20T00:16:39;256.40;1945.60
54796;DHT22;40693;43.884;20.340;2023-03-20T00:19:11;256.40;1971.20
54796;DHT22;40693;43.884;20.340;2023-03-20T00:21:41;256.40;1971.20
54796;DHT22;40693;43.884;20.340;2023-03-20T00:24:07;256.20;1971.20
54796;DHT22;40693;43.884;20.340;2023-03-20T00:26:34;256.20;1971.20
54796;DHT22;40693;43.884;20.340;2023-03-20T00:29:02;256.20;1996.80
54796;DHT22;40693;43.884;20.340;2023-03-20T00:31:31;256.30;1996.80
54796;DHT22;40693;43.884;20.340;2023-03-20T00:34:00;256.30;1971.20
54796;DHT22;40693;43.884;20.340;2023-03-20T00:36:26;256.40;1996.80
54796;DHT22;40693;43.884;20.340;2023-03-20T00:38:53;256.40;1996.80
54796;DHT22;40693;43.884;20.340;2023-03-20T00:41:49;256.40;1996.80
54796;DHT22;40693;43.884;20.340;2023-03-20T00:44:37;256.40;1996.80
54796;DHT22;40693;43.884;20.340;2023-03-20T00:47:09;256.40;1996.80
54796;DHT22;40693;43.884;20.340;2023-03-20T00:49:35;256.40;1996.80
54796;DHT22;40693;43.884;20.340;2023-03-20T00:52:05;256.30;1996.80
54796;DHT22;40693;43.884;20.340;2023-03-20T00:54:31;231.20;1996.80
54796;DHT22;40693;43.884;20.340;2023-03-20T00:56:59;256.30;1996.80
54796;DHT22;40693;43.884;20.340;2023-03-20T00:59:32;256.30;1996.80
54796;DHT22;40693;43.884;20.340;2023-03-20T01:02:00;256.30;1996.80
54796;DHT22;40693;43.884;20.340;2023-03-20T01:04:40;256.30;2022.40
54796;DHT22;40693;43.884;20.340;2023-03-20T01:07:11;256.30;2022.40
54796;DHT22;40693;43.884;20.340;2023-03-20T01:09:38;256.30;2022.40
54796;DHT22;40693;43.884;20.340;2023-03-20T01:12:10;256.30;2022.40
54796;DHT22;40693;43.884;20.340;2023-03-20T01:14:40;256.30;2022.40
54796;DHT22;40693;43.884;20.340;2023-03-20T01:17:16;256.60;2022.40
54796;DHT22;40693;43.884;20.340;2023-03-20T01:19:42;256.40;2022.40
54796;DHT22;40693;43.884;20.340;2023-03-20T01:22:08;256.40;2022.40
54796;DHT22;40693;43.884;20.340;2023-03-20T01:24:34;256.30;2022.40
54796;DHT22;40693;43.884;20.340;2023-03-20T01:26:59;256.20;2022.40
54796;DHT22;40693;43.884;20.340;2023-03-20T01:29:28;256.20;2048.00
54796;DHT22;40693;43.884;20.340;2023-03-20T01:32:00;256.20;2048.00
54796;DHT22;40693;43.884;20.340;2023-03-20T01:34:26;256.20;2048.00
54796;DHT22;40693;43.884;20.340;2023-03-20T01:36:54;256.20;2048.00
54796;DHT22;40693;43.884;20.340;2023-03-20T01:39:21;256.20;2048.00
54796;DHT22;40693;43.884;20.340;2023-03-20T01:41:50;256.20;2073.60
54796;DHT22;40693;43.884;20.340;2023-03-20T01:46:45;256.10;2073.60
54796;DHT22;40693;43.884;20.340;2023-03-20T01:51:49;256.20;2073.60
54796;DHT22;40693;43.884;20.340;2023-03-20T01:54:22;256.10;2073.60
54796;DHT22;40693;43.884;20.340;2023-03-20T01:59:21;256.10;2073.60
54796;DHT22;40693;43.884;20.340;2023-03-20T02:02:01;256.10;2099.20
54796;DHT22;40693;43.884;20.340;2023-03-20T02:04:32;256.10;2099.20
54796;DHT22;40693;43.884;20.340;2023-03-20T02:06:59;256.10;2099.20
54796;DHT22;40693;43.884;20.340;2023-03-20T02:09:28;256.00;2099.20
54796;DHT22;40693;43.884;20.340;2023-03-20T02:11:55;231.30;2124.80
54796;DHT22;40693;43.884;20.340;2023-03-20T02:14:21;231.10;2150.40
54796;DHT22;40693;43.884;20.340;2023-03-20T02:16:48;231.10;2150.40
54796;DHT22;40693;43.884;20.340;2023-03-20T02:19:27;231.20;2176.00
54796;DHT22;40693;43.884;20.340;2023-03-20T02:28:27;231.20;2176.00
54796;DHT22;40693;43.884;20.340;2023-03-20T02:31:12;231.20;2176.00
54796;DHT22;40693;43.884;20.340;2023-03-20T02:39:12;231.10;2201.60
54796;DHT22;40693;43.884;20.340;2023-03-20T02:44:20;231.00;2252.80
54796;DHT22;40693;43.884;20.340;2023-03-20T02:47:04;231.00;2252.80
54796;DHT22;40693;43.884;20.340;2023-03-20T03:00:47;230.70;2252.80
54796;DHT22;40693;43.884;20.340;2023-03-20T03:06:37;230.70;2252.80
54796;DHT22;40693;43.884;20.340;2023-03-20T03:09:19;230.70;2252.80
54796;DHT22;40693;43.884;20.340;2023-03-20T03:12:20;230.70;2252.80
54796;DHT22;40693;43.884;20.340;2023-03-20T03:14:58;230.70;2252.80
54796;DHT22;40693;43.884;20.340;2023-03-20T03:17:27;230.70;2252.80
54796;DHT22;40693;43.884;20.340;2023-03-20T03:20:01;230.70;2252.80
54796;DHT22;40693;43.884;20.340;2023-03-20T03:22:33;230.70;2252.80
54796;DHT22;40693;43.884;20.340;2023-03-20T03:25:04;230.70;2252.80
54796;DHT22;40693;43.884;20.340;2023-03-20T03:27:36;205.40;2252.80
54796;DHT22;40693;43.884;20.340;2023-03-20T03:30:21;230.60;2252.80
54796;DHT22;40693;43.884;20.340;2023-03-20T03:33:24;230.60;2252.80
54796;DHT22;40693;43.884;20.340;2023-03-20T03:35:45;230.60;2252.80
54796;DHT22;40693;43.884;20.340;2023-03-20T03:47:20;230.50;2252.80
54796;DHT22;40693;43.884;20.340;2023-03-20T03:49:51;230.50;2252.80
54796;DHT22;40693;43.884;20.340;2023-03-20T03:52:21;230.40;2252.80
54796;DHT22;40693;43.884;20.340;2023-03-20T03:55:12;230.50;2252.80
54796;DHT22;40693;43.884;20.340;2023-03-20T03:57:47;230.40;2252.80
54796;DHT22;40693;43.884;20.340;2023-03-20T04:00:18;230.40;2252.80
54796;DHT22;40693;43.884;20.340;2023-03-20T04:02:50;205.70;2252.80
54796;DHT22;40693;43.884;20.340;2023-03-20T04:05:24;205.70;2252.80
54796;DHT22;40693;43.884;20.340;2023-03-20T04:08:02;205.70;2252.80
54796;DHT22;40693;43.884;20.340;2023-03-20T04:10:31;205.70;2252.80
54796;DHT22;40693;43.884;20.340;2023-03-20T04:12:57;205.70;2252.80
54796;DHT22;40693;43.884;20.340;2023-03-20T04:15:23;205.70;2252.80
54796;DHT22;40693;43.884;20.340;2023-03-20T04:17:52;205.70;2252.80
54796;DHT22;40693;43.884;20.340;2023-03-20T04:20:18;205.30;2252.80
54796;DHT22;40693;43.884;20.340;2023-03-20T04:22:44;205.60;2252.80
54796;DHT22;40693;43.884;20.340;2023-03-20T04:25:22;205.60;2252.80
54796;DHT22;40693;43.884;20.340;2023-03-20T04:27:49;205.60;2252.80
54796;DHT22;40693;43.884;20.340;2023-03-20T04:30:15;205.50;2252.80
54796;DHT22;40693;43.884;20.340;2023-03-20T04:32:44;205.40;2252.80
54796;DHT22;40693;43.884;20.340;2023-03-20T04:35:12;205.40;2252.80
54796;DHT22;40693;43.884;20.340;2023-03-20T04:37:41;205.40;2252.80
54796;DHT22;40693;43.884;20.340;2023-03-20T04:40:07;205.40;2252.80
54796;DHT22;40693;43.884;20.340;2023-03-20T04:42:33;205.40;2252.80
54796;DHT22;40693;43.884;20.340;2023-03-20T04:44:59;205.40;2252.80
54796;DHT22;40693;43.884;20.340;2023-03-20T04:47:24;205.50;2252.80
54796;DHT22;40693;43.884;20.340;2023-03-20T04:49:50;205.40;2252.80
54796;DHT22;40693;43.884;20.340;2023-03-20T04:52:16;205.40;2252.80
54796;DHT22;40693;43.884;20.340;2023-03-20T04:54:42;205.40;2252.80
54796;DHT22;40693;43.884;20.340;2023-03-20T04:57:08;205.40;2252.80
54796;DHT22;40693;43.884;20.340;2023-03-20T04:59:34;205.40;2252.80
54796;DHT22;40693;43.884;20.340;2023-03-20T05:01:59;205.40;2252.80
54796;DHT22;40693;43.884;20.340;2023-03-20T05:04:25;205.40;2252.80
54796;DHT22;40693;43.884;20.340;2023-03-20T05:06:52;205.40;2252.80
54796;DHT22;40693;43.884;20.340;2023-03-20T05:09:18;205.40;2252.80
54796;DHT22;40693;43.884;20.340;2023-03-20T05:11:45;205.40;2252.80
54796;DHT22;40693;43.884;20.340;2023-03-20T05:14:11;205.40;2252.80
54796;DHT22;40693;43.884;20.340;2023-03-20T05:16:39;205.40;2252.80
54796;DHT22;40693;43.884;20.340;2023-03-20T05:19:07;205.40;2252.80
54796;DHT22;40693;43.884;20.340;2023-03-20T05:21:33;205.30;2252.80
54796;DHT22;40693;43.884;20.340;2023-03-20T05:23:59;205.30;2252.80
54796;DHT22;40693;43.884;20.340;2023-03-20T05:26:26;205.20;2252.80
54796;DHT22;40693;43.884;20.340;2023-03-20T05:28:54;205.30;2252.80
54796;DHT22;40693;43.884;20.340;2023-03-20T05:31:36;205.30;2252.80
54796;DHT22;40693;43.884;20.340;2023-03-20T05:34:02;205.30;2252.80
54796;DHT22;40693;43.884;20.340;2023-03-20T05:36:28;205.40;2252.80
54796;DHT22;40693;43.884;20.340;2023-03-20T05:38:56;205.40;2252.80
54796;DHT22;40693;43.884;20.340;2023-03-20T05:41:22;205.50;2252.80
54796;DHT22;40693;43.884;20.340;2023-03-20T05:43:51;205.40;2252.80
54796;DHT22;40693;43.884;20.340;2023-03-20T05:46:16;205.70;2252.80
54796;DHT22;40693;43.884;20.340;2023-03-20T05:48:42;205.70;2252.80
54796;DHT22;40693;43.884;20.340;2023-03-20T05:51:08;230.40;2252.80
54796;DHT22;40693;43.884;20.340;2023-03-20T05:53:35;230.50;2252.80
54796;DHT22;40693;43.884;20.340;2023-03-20T05:56:01;230.50;2252.80
54796;DHT22;40693;43.884;20.340;2023-03-20T05:58:26;230.50;2252.80
54796;DHT22;40693;43.884;20.340;2023-03-20T06:00:57;230.60;2252.80
54796;DHT22;40693;43.884;20.340;2023-03-20T06:03:23;230.70;2252.80
54796;DHT22;40693;43.884;20.340;2023-03-20T06:05:49;230.80;2252.80
54796;DHT22;40693;43.884;20.340;2023-03-20T06:08:15;230.80;2252.80
54796;DHT22;40693;43.884;20.340;2023-03-20T06:10:41;230.90;2252.80
54796;DHT22;40693;43.884;20.340;2023-03-20T06:13:06;230.90;2252.80
54796;DHT22;40693;43.884;20.340;2023-03-20T06:15:32;231.00;2252.80
54796;DHT22;40693;43.884;20.340;2023-03-20T06:18:03;231.10;2252.80
54796;DHT22;40693;43.884;20.340;2023-03-20T06:20:30;231.20;2252.80
54796;DHT22;40693;43.884;20.340;2023-03-20T06:22:56;231.20;2252.80
54796;DHT22;40693;43.884;20.340;2023-03-20T06:25:21;231.30;2252.80
54796;DHT22;40693;43.884;20.340;2023-03-20T06:27:48;256.00;2252.80
54796;DHT22;40693;43.884;20.340;2023-03-20T06:30:26;256.00;2252.80
54796;DHT22;40693;43.884;20.340;2023-03-20T06:32:56;256.00;2252.80
54796;DHT22;40693;43.884;20.340;2023-03-20T06:35:25;256.00;2252.80
54796;DHT22;40693;43.884;20.340;2023-03-20T06:37:58;256.00;2252.80
54796;DHT22;40693;43.884;20.340;2023-03-20T06:40:24;256.10;2252.80
54796;DHT22;40693;43.884;20.340;2023-03-20T06:42:52;256.20;2252.80
54796;DHT22;40693;43.884;20.340;2023-03-20T06:45:18;256.30;2252.80
54796;DHT22;40693;43.884;20.340;2023-03-20T06:47:44;256.40;2252.80
54796;DHT22;40693;43.884;20.340;2023-03-20T06:50:12;256.50;2252.80
54796;DHT22;40693;43.884;20.340;2023-03-20T06:52:40;256.60;2252.80
54796;DHT22;40693;43.884;20.340;2023-03-20T06:55:10;256.40;2252.80
54796;DHT22;40693;43.884;20.340;2023-03-20T06:57:38;256.80;2252.80
54796;DHT22;40693;43.884;20.340;2023-03-20T07:00:07;256.90;2252.80
54796;DHT22;40693;43.884;20.340;2023-03-20T07:02:34;256.50;2252.80
54796;DHT22;40693;43.884;20.340;2023-03-20T07:05:01;281.70;2278.40
54796;DHT22;40693;43.884;20.340;2023-03-20T07:07:29;281.90;2278.40
54796;DHT22;40693;43.884;20.340;2023-03-20T07:09:55;281.90;2278.40
54796;DHT22;40693;43.884;20.340;2023-03-20T07:12:21;256.70;2252.80
54796;DHT22;40693;43.884;20.340;2023-03-20T07:14:50;282.10;2278.40
54796;DHT22;40693;43.884;20.340;2023-03-20T07:17:16;282.20;2278.40
54796;DHT22;40693;43.884;20.340;2023-03-20T07:19:42;282.30;2278.40
54796;DHT22;40693;43.884;20.340;2023-03-20T07:22:20;282.50;2252.80
54796;DHT22;40693;43.884;20.340;2023-03-20T07:24:47;307.20;2278.40
54796;DHT22;40693;43.884;20.340;2023-03-20T07:27:13;307.40;2252.80
54796;DHT22;40693;43.884;20.340;2023-03-20T07:29:39;307.50;2227.20
54796;DHT22;40693;43.884;20.340;2023-03-20T07:32:05;307.50;2227.20
54796;DHT22;40693;43.884;20.340;2023-03-20T07:34:31;307.70;2201.60
54796;DHT22;40693;43.884;20.340;2023-03-20T07:36:57;307.80;2176.00
54796;DHT22;40693;43.884;20.340;2023-03-20T07:39:23;308.00;2201.60
54796;DHT22;40693;43.884;20.340;2023-03-20T07:41:51;308.10;2201.60
54796;DHT22;40693;43.884;20.340;2023-03-20T07:44:17;332.80;2201.60
54796;DHT22;40693;43.884;20.340;2023-03-20T07:47:12;332.90;2201.60
54796;DHT22;40693;43.884;20.340;2023-03-20T07:49:38;333.00;2176.00
54796;DHT22;40693;43.884;20.340;2023-03-20T07:52:10;333.10;2201.60
54796;DHT22;40693;43.884;20.340;2023-03-20T07:54:35;333.30;2099.20
54796;DHT22;40693;43.884;20.340;2023-03-20T07:57:01;333.40;2124.80
54796;DHT22;40693;43.884;20.340;2023-03-20T07:59:30;333.60;2073.60
54796;DHT22;40693;43.884;20.340;2023-03-20T08:01:55;333.70;2048.00
54796;DHT22;40693;43.884;20.340;2023-03-20T08:04:21;358.40;2022.40
54796;DHT22;40693;43.884;20.340;2023-03-20T08:06:50;358.50;1996.80
54796;DHT22;40693;43.884;20.340;2023-03-20T08:09:16;358.60;1996.80
54796;DHT22;40693;43.884;20.340;2023-03-20T08:11:43;358.80;1971.20
54796;DHT22;40693;43.884;20.340;2023-03-20T08:14:08;359.00;2022.40
54796;DHT22;40693;43.884;20.340;2023-03-20T08:16:34;359.10;1920.00
54796;DHT22;40693;43.884;20.340;2023-03-20T08:19:00;359.20;1920.00
54796;DHT22;40693;43.884;20.340;2023-03-20T08:21:29;359.30;1894.40
54796;DHT22;40693;43.884;20.340;2023-03-20T08:23:58;384.00;1868.80
54796;DHT22;40693;43.884;20.340;2023-03-20T08:26:24;384.10;1868.80
54796;DHT22;40693;43.884;20.340;2023-03-20T08:28:53;384.30;1817.60
54796;DHT22;40693;43.884;20.340;2023-03-20T08:31:19;384.40;1817.60
54796;DHT22;40693;43.884;20.340;2023-03-20T08:33:45;384.50;1792.00
54796;DHT22;40693;43.884;20.340;2023-03-20T08:36:11;384.70;1843.20
54796;DHT22;40693;43.884;20.340;2023-03-20T08:38:38;384.90;1817.60
54796;DHT22;40693;43.884;20.340;2023-03-20T08:41:08;409.70;1766.40
54796;DHT22;40693;43.884;20.340;2023-03-20T08:43:34;410.00;1766.40
54796;DHT22;40693;43.884;20.340;2023-03-20T08:46:01;410.40;1766.40
54796;DHT22;40693;43.884;20.340;2023-03-20T08:48:27;410.40;1766.40
54796;DHT22;40693;43.884;20.340;2023-03-20T08:50:52;435.20;1715.20
54796;DHT22;40693;43.884;20.340;2023-03-20T08:53:20;435.30;1689.60
54796;DHT22;40693;43.884;20.340;2023-03-20T08:55:49;435.40;1689.60
54796;DHT22;40693;43.884;20.340;2023-03-20T08:58:17;435.50;1664.00
54796;DHT22;40693;43.884;20.340;2023-03-20T09:00:43;435.80;1638.40
54796;DHT22;40693;43.884;20.340;2023-03-20T09:03:17;435.90;1638.40
54796;DHT22;40693;43.884;20.340;2023-03-20T09:05:44;436.10;1612.80
54796;DHT22;40693;43.884;20.340;2023-03-20T09:08:11;460.90;1638.40
54796;DHT22;40693;43.884;20.340;2023-03-20T09:10:37;461.00;1638.40
54796;DHT22;40693;43.884;20.340;2023-03-20T09:13:03;461.20;1587.20
54796;DHT22;40693;43.884;20.340;2023-03-20T09:15:28;461.40;1664.00
54796;DHT22;40693;43.884;20.340;2023-03-20T09:17:54;461.70;1612.80
54796;DHT22;40693;43.884;20.340;2023-03-20T09:20:20;486.50;1561.60
54796;DHT22;40693;43.884;20.340;2023-03-20T09:22:46;486.80;1536.00
54796;DHT22;40693;43.884;20.340;2023-03-20T09:25:12;486.90;1459.20
54796;DHT22;40693;43.884;20.340;2023-03-20T09:27:38;487.10;1459.20
54796;DHT22;40693;43.884;20.340;2023-03-20T09:30:05;487.20;1484.80
54796;DHT22;40693;43.884;20.340;2023-03-20T09:32:32;512.00;1459.20
54796;DHT22;40693;43.884;20.340;2023-03-20T09:34:59;512.20;1510.40
54796;DHT22;40693;43.884;20.340;2023-03-20T09:37:26;512.30;1459.20
54796;DHT22;40693;43.884;20.340;2023-03-20T09:39:52;512.50;1382.40
54796;DHT22;40693;43.884;20.340;2023-03-20T09:45:11;512.80;1305.60
54796;DHT22;40693;43.884;20.340;2023-03-20T09:48:01;512.90;1305.60
54796;DHT22;40693;43.884;20.340;2023-03-20T09:50:50;512.90;1305.60
54796;DHT22;40693;43.884;20.340;2023-03-20T09:53:26;537.60;1305.60
54796;DHT22;40693;43.884;20.340;2023-03-20T09:55:55;537.80;1331.20
54796;DHT22;40693;43.884;20.340;2023-03-20T09:58:36;537.90;1305.60
54796;DHT22;40693;43.884;20.340;2023-03-20T10:01:03;537.70;1305.60
54796;DHT22;40693;43.884;20.340;2023-03-20T10:03:52;538.20;1305.60
54796;DHT22;40693;43.884;20.340;2023-03-20T10:06:20;538.50;1382.40
54796;DHT22;40693;43.884;20.340;2023-03-20T10:08:46;563.30;1382.40
54796;DHT22;40693;43.884;20.340;2023-03-20T10:14:06;563.60;1356.80
54796;DHT22;40693;43.884;20.340;2023-03-20T10:17:05;563.80;1356.80
54796;DHT22;40693;43.884;20.340;2023-03-20T10:19:41;564.10;1382.40
54796;DHT22;40693;43.884;20.340;2023-03-20T10:22:32;588.90;1382.40
54796;DHT22;40693;43.884;20.340;2023-03-20T10:28:20;589.20;1305.60
54796;DHT22;40693;43.884;20.340;2023-03-20T10:31:08;589.10;1305.60
54796;DHT22;40693;43.884;20.340;2023-03-20T10:39:00;589.40;1305.60
54796;DHT22;40693;43.884;20.340;2023-03-20T10:41:34;589.70;1331.20
54796;DHT22;40693;43.884;20.340;2023-03-20T10:44:02;614.50;1254.40
54796;DHT22;40693;43.884;20.340;2023-03-20T10:46:31;614.50;1331.20
54796;DHT22;40693;43.884;20.340;2023-03-20T10:49:14;614.70;1280.00
54796;DHT22;40693;43.884;20.340;2023-03-20T10:51:50;614.80;1254.40
54796;DHT22;40693;43.884;20.340;2023-03-20T10:54:34;615.00;1228.80
54796;DHT22;40693;43.884;20.340;2023-03-20T10:57:05;615.20;1280.00
54796;DHT22;40693;43.884;20.340;2023-03-20T10:59:43;615.30;1254.40
54796;DHT22;40693;43.884;20.340;2023-03-20T11:02:15;640.00;1228.80
54796;DHT22;40693;43.884;20.340;2023-03-20T11:04:41;640.00;1254.40
54796;DHT22;40693;43.884;20.340;2023-03-20T11:07:45;615.30;1203.20
54796;DHT22;40693;43.884;20.340;2023-03-20T11:10:14;640.00;1203.20
54796;DHT22;40693;43.884;20.340;2023-03-20T11:12:43;640.10;1254.40
54796;DHT22;40693;43.884;20.340;2023-03-20T11:15:25;640.10;1228.80
54796;DHT22;40693;43.884;20.340;2023-03-20T11:18:05;640.30;1254.40
54796;DHT22;40693;43.884;20.340;2023-03-20T11:20:49;640.40;1203.20
54796;DHT22;40693;43.884;20.340;2023-03-20T11:23:19;640.50;1254.40
54796;DHT22;40693;43.884;20.340;2023-03-20T11:25:59;640.60;1177.60
54796;DHT22;40693;43.884;20.340;2023-03-20T11:28:35;640.70;1203.20
54796;DHT22;40693;43.884;20.340;2023-03-20T11:36:30;665.60;1203.20
54796;DHT22;40693;43.884;20.340;2023-03-20T11:39:05;665.60;1254.40
54796;DHT22;40693;43.884;20.340;2023-03-20T11:41:32;665.70;1228.80
54796;DHT22;40693;43.884;20.340;2023-03-20T11:43:58;665.60;1280.00
54796;DHT22;40693;43.884;20.340;2023-03-20T11:46:25;665.60;1203.20
54796;DHT22;40693;43.884;20.340;2023-03-20T11:49:20;640.70;1177.60
54796;DHT22;40693;43.884;20.340;2023-03-20T11:51:49;640.90;1203.20
54796;DHT22;40693;43.884;20.340;2023-03-20T11:54:17;665.60;1228.80
54796;DHT22;40693;43.884;20.340;2023-03-20T11:56:56;640.90;1177.60
54796;DHT22;40693;43.884;20.340;2023-03-20T11:59:34;640.80;1152.00
54796;DHT22;40693;43.884;20.340;2023-03-20T12:02:03;640.70;1177.60
54796;DHT22;40693;43.884;20.340;2023-03-20T12:04:30;640.90;1152.00
54796;DHT22;40693;43.884;20.340;2023-03-20T12:10:02;640.80;1203.20
54796;DHT22;40693;43.884;20.340;2023-03-20T12:12:53;640.90;1177.60
54796;DHT22;40693;43.884;20.340;2023-03-20T12:15:27;665.60;1203.20
54796;DHT22;40693;43.884;20.340;2023-03-20T12:23:14;640.90;1152.00
54796;DHT22;40693;43.884;20.340;2023-03-20T12:25:50;665.70;1228.80
54796;DHT22;40693;43.884;20.340;2023-03-20T12:28:42;665.80;1177.60
54796;DHT22;40693;43.884;20.340;2023-03-20T12:36:28;665.90;1203.20
54796;DHT22;40693;43.884;20.340;2023-03-20T12:38:55;665.80;1152.00
54796;DHT22;40693;43.884;20.340;2023-03-20T12:41:28;665.60;1177.60
54796;DHT22;40693;43.884;20.340;2023-03-20T12:44:06;665.60;1177.60
54796;DHT22;40693;43.884;20.340;2023-03-20T12:52:19;665.80;1177.60
54796;DHT22;40693;43.884;20.340;2023-03-20T13:10:42;666.50;1126.40
54796;DHT22;40693;43.884;20.340;2023-03-20T13:13:16;691.20;1152.00
54796;DHT22;40693;43.884;20.340;2023-03-20T13:21:26;666.50;1126.40
54796;DHT22;40693;43.884;20.340;2023-03-20T13:29:42;666.50;1126.40
54796;DHT22;40693;43.884;20.340;2023-03-20T13:37:26;665.80;1126.40
54796;DHT22;40693;43.884;20.340;2023-03-20T13:40:07;665.80;1152.00
54796;DHT22;40693;43.884;20.340;2023-03-20T13:42:36;665.70;1152.00
54796;DHT22;40693;43.884;20.340;2023-03-20T14:07:45;640.10;1152.00
54796;DHT22;40693;43.884;20.340;2023-03-20T14:12:58;640.10;1152.00
54796;DHT22;40693;43.884;20.340;2023-03-20T14:15:31;640.10;1152.00
54796;DHT22;40693;43.884;20.340;2023-03-20T14:18:05;640.30;1152.00
54796;DHT22;40693;43.884;20.340;2023-03-20T14:20:38;640.20;1152.00
54796;DHT22;40693;43.884;20.340;2023-03-20T14:23:05;640.00;1203.20
54796;DHT22;40693;43.884;20.340;2023-03-20T14:25:38;640.10;1203.20
54796;DHT22;40693;43.884;20.340;2023-03-20T14:30:49;640.30;1152.00
54796;DHT22;40693;43.884;20.340;2023-03-20T14:35:45;640.30;1177.60
54796;DHT22;40693;43.884;20.340;2023-03-20T14:41:14;640.30;1152.00
54796;DHT22;40693;43.884;20.340;2023-03-20T14:51:47;640.50;1126.40
54796;DHT22;40693;43.884;20.340;2023-03-20T14:54:33;640.50;1152.00
54796;DHT22;40693;43.884;20.340;2023-03-20T14:57:16;640.30;1152.00
54796;DHT22;40693;43.884;20.340;2023-03-20T14:59:42;640.30;1152.00
54796;DHT22;40693;43.884;20.340;2023-03-20T15:02:29;640.20;1177.60
54796;DHT22;40693;43.884;20.340;2023-03-20T15:04:56;640.10;1152.00
54796;DHT22;40693;43.884;20.340;2023-03-20T15:07:30;640.00;1177.60
54796;DHT22;40693;43.884;20.340;2023-03-20T15:10:00;615.20;1177.60
54796;DHT22;40693;43.884;20.340;2023-03-20T15:12:34;614.90;1177.60
54796;DHT22;40693;43.884;20.340;2023-03-20T15:15:05;614.80;1203.20
54796;DHT22;40693;43.884;20.340;2023-03-20T15:17:40;614.70;1152.00
54796;DHT22;40693;43.884;20.340;2023-03-20T15:23:00;614.60;1228.80
54796;DHT22;40693;43.884;20.340;2023-03-20T15:25:46;589.70;1177.60
54796;DHT22;40693;43.884;20.340;2023-03-20T15:28:32;589.60;1254.40
54796;DHT22;40693;43.884;20.340;2023-03-20T15:31:03;589.30;1228.80
54796;DHT22;40693;43.884;20.340;2023-03-20T15:33:34;589.20;1203.20
54796;DHT22;40693;43.884;20.340;2023-03-20T15:36:21;589.20;1203.20
54796;DHT22;40693;43.884;20.340;2023-03-20T15:39:05;588.80;1228.80
54796;DHT22;40693;43.884;20.340;2023-03-20T15:41:33;588.80;1228.80
54796;DHT22;40693;43.884;20.340;2023-03-20T15:47:02;563.90;1228.80
54796;DHT22;40693;43.884;20.340;2023-03-20T15:49:30;563.90;1254.40
54796;DHT22;40693;43.884;20.340;2023-03-20T15:51:59;563.90;1254.40
54796;DHT22;40693;43.884;20.340;2023-03-20T15:54:26;563.80;1254.40
54796;DHT22;40693;43.884;20.340;2023-03-20T15:56:55;563.20;1254.40
54796;DHT22;40693;43.884;20.340;2023-03-20T15:59:28;563.60;1305.60
54796;DHT22;40693;43.884;20.340;2023-03-20T16:01:57;563.60;1305.60
54796;DHT22;40693;43.884;20.340;2023-03-20T16:04:24;563.60;1305.60
54796;DHT22;40693;43.884;20.340;2023-03-20T16:06:54;563.60;1305.60
54796;DHT22;40693;43.884;20.340;2023-03-20T16:09:22;563.60;1305.60
54796;DHT22;40693;43.884;20.340;2023-03-20T16:11:58;563.40;1254.40
54796;DHT22;40693;43.884;20.340;2023-03-20T16:14:30;563.30;1254.40
54796;DHT22;40693;43.884;20.340;2023-03-20T16:16:58;563.20;1280.00
54796;DHT22;40693;43.884;20.340;2023-03-20T16:19:25;538.40;1254.40
54796;DHT22;40693;43.884;20.340;2023-03-20T16:21:58;538.50;1254.40
54796;DHT22;40693;43.884;20.340;2023-03-20T16:24:27;538.40;1305.60
54796;DHT22;40693;43.884;20.340;2023-03-20T16:26:54;538.40;1356.80
54796;DHT22;40693;43.884;20.340;2023-03-20T16:29:23;538.30;1280.00
54796;DHT22;40693;43.884;20.340;2023-03-20T16:31:57;538.10;1280.00
54796;DHT22;40693;43.884;20.340;2023-03-20T16:34:30;538.10;1280.00
54796;DHT22;40693;43.884;20.340;2023-03-20T16:37:00;538.00;1280.00
54796;DHT22;40693;43.884;20.340;2023-03-20T16:39:29;538.00;1305.60
54796;DHT22;40693;43.884;20.340;2023-03-20T16:44:41;537.70;1280.00
54796;DHT22;40693;43.884;20.340;2023-03-20T16:50:14;537.70;1305.60
54796;DHT22;40693;43.884;20.340;2023-03-20T16:52:49;512.90;1280.00
54796;DHT22;40693;43.884;20.340;2023-03-20T16:55:23;512.90;1280.00
54796;DHT22;40693;43.884;20.340;2023-03-20T16:57:53;512.80;1305.60
54796;DHT22;40693;43.884;20.340;2023-03-20T17:00:27;512.60;1305.60
54796;DHT22;40693;43.884;20.340;2023-03-20T17:08:45;512.80;1331.20
54796;DHT22;40693;43.884;20.340;2023-03-20T17:11:37;512.40;1356.80
54796;DHT22;40693;43.884;20.340;2023-03-20T17:14:04;512.40;1356.80
54796;DHT22;40693;43.884;20.340;2023-03-20T17:16:31;512.30;1356.80
54796;DHT22;40693;43.884;20.340;2023-03-20T17:19:16;512.30;1356.80
54796;DHT22;40693;43.884;20.340;2023-03-20T17:21:43;512.10;1356.80
54796;DHT22;40693;43.884;20.340;2023-03-20T17:24:11;512.10;1356.80
54796;DHT22;40693;43.884;20.340;2023-03-20T17:26:38;487.30;1356.80
54796;DHT22;40693;43.884;20.340;2023-03-20T17:29:05;487.30;1356.80
54796;DHT22;40693;43.884;20.340;2023-03-20T17:31:34;487.30;1382.40
54796;DHT22;40693;43.884;20.340;2023-03-20T17:34:12;487.30;1382.40
54796;DHT22;40693;43.884;20.340;2023-03-20T17:36:41;487.00;1382.40
54796;DHT22;40693;43.884;20.340;2023-03-20T17:39:19;487.00;1382.40
54796;DHT22;40693;43.884;20.340;2023-03-20T17:41:46;486.90;1382.40
54796;DHT22;40693;43.884;20.340;2023-03-20T17:44:12;486.80;1382.40
54796;DHT22;40693;43.884;20.340;2023-03-20T17:46:41;486.90;1408.00
54796;DHT22;40693;43.884;20.340;2023-03-20T17:49:13;486.80;1408.00
54796;DHT22;40693;43.884;20.340;2023-03-20T17:51:39;486.80;1408.00
54796;DHT22;40693;43.884;20.340;2023-03-20T17:54:05;486.70;1408.00
54796;DHT22;40693;43.884;20.340;2023-03-20T17:56:34;486.60;1433.60